Time;durP1;ratioP1;P1;durP2;ratioP2;P2;SDS_P1;SDS_P2;PMS_P1;PMS_P2;Temp;Humidity;BMP_temperature;BMP_pressure;BME280_temperature;BME280_humidity;BME280_pressure;Samples;Min_cycle;Max_cycle;Signal;HPM_P1;HPM_P2
2022/06/19 00:00:05;;;;;;;10.10;4.88;;;25.00;91.60;;;;;;4973342;28;20403;-86
2022/06/19 00:02:46;;;;;;;13.07;5.00;;;25.00;91.70;;;;;;4972475;28;20039;-86
2022/06/19 00:05:18;;;;;;;7.65;4.10;;;25.00;91.80;;;;;;4972147;28;20553;-87
2022/06/19 00:07:57;;;;;;;9.07;4.93;;;25.00;91.90;;;;;;4973246;28;20153;-86
2022/06/19 00:10:30;;;;;;;8.55;4.40;;;25.00;92.00;;;;;;4971921;28;20058;-86
2022/06/19 00:12:56;;;;;;;8.80;4.10;;;24.90;92.00;;;;;;4973226;28;20034;-86
2022/06/19 00:15:24;;;;;;;7.90;3.97;;;24.90;92.00;;;;;;4971837;28;20491;-86
2022/06/19 00:17:53;;;;;;;7.07;3.83;;;24.80;92.10;;;;;;4973024;28;20030;-87
2022/06/19 00:20:19;;;;;;;9.00;3.90;;;24.80;92.10;;;;;;4955162;28;20046;-86
2022/06/19 00:22:47;;;;;;;10.10;4.20;;;24.80;92.10;;;;;;4973120;28;20395;-86
2022/06/19 00:25:13;;;;;;;7.13;3.80;;;24.80;92.10;;;;;;4973052;28;20037;-86
2022/06/19 00:27:41;;;;;;;10.40;4.28;;;24.80;92.20;;;;;;4972702;28;20029;-86
2022/06/19 00:30:10;;;;;;;5.97;3.50;;;24.70;92.10;;;;;;4971783;28;20030;-86
2022/06/19 00:32:37;;;;;;;8.27;3.50;;;24.70;92.20;;;;;;4973390;28;20034;-86
2022/06/19 00:35:04;;;;;;;8.13;4.07;;;24.70;92.10;;;;;;4972879;28;20372;-86
2022/06/19 00:37:33;;;;;;;7.60;3.88;;;24.70;92.20;;;;;;4971496;28;20035;-86
2022/06/19 00:39:59;;;;;;;6.22;3.38;;;24.60;92.20;;;;;;4972703;28;20373;-86
2022/06/19 00:42:26;;;;;;;7.00;3.58;;;24.50;92.20;;;;;;4972923;28;20110;-86
2022/06/19 00:44:57;;;;;;;6.50;3.63;;;24.50;92.30;;;;;;4971267;28;20078;-86
2022/06/19 00:47:32;;;;;;;9.20;3.78;;;24.50;92.30;;;;;;4972544;28;20472;-86
2022/06/19 00:50:03;;;;;;;6.47;3.13;;;24.40;92.30;;;;;;4972377;28;20483;-86
2022/06/19 00:52:38;;;;;;;9.15;4.05;;;24.40;92.40;;;;;;4972514;28;20479;-86
2022/06/19 00:55:30;;;;;;;6.63;3.42;;;24.40;92.50;;;;;;4986835;23;20041;-85
2022/06/19 00:58:04;;;;;;;6.68;3.33;;;24.40;92.60;;;;;;4951716;29;20062;-84
2022/06/19 01:00:31;;;;;;;7.68;3.85;;;24.30;92.60;;;;;;4952604;28;20082;-85
2022/06/19 01:03:14;;;;;;;6.40;3.47;;;24.30;92.60;;;;;;4953295;28;20543;-85
2022/06/19 01:05:42;;;;;;;7.10;3.50;;;24.30;92.70;;;;;;4952554;28;20477;-86
2022/06/19 01:08:09;;;;;;;6.22;3.17;;;24.20;92.80;;;;;;4936040;29;20027;-85
2022/06/19 01:10:39;;;;;;;10.93;4.00;;;24.20;92.90;;;;;;4951740;29;20094;-85
2022/06/19 01:13:05;;;;;;;5.40;3.53;;;24.20;92.80;;;;;;4953071;29;20028;-85
2022/06/19 01:15:32;;;;;;;6.60;2.92;;;24.20;92.90;;;;;;4951697;28;20114;-85
2022/06/19 01:18:02;;;;;;;5.53;2.90;;;24.10;92.70;;;;;;4952782;29;20054;-85
2022/06/19 01:20:29;;;;;;;5.18;2.78;;;24.10;92.70;;;;;;4952926;29;20031;-85
2022/06/19 01:23:17;;;;;;;5.80;2.70;;;24.10;92.70;;;;;;4953259;29;20027;-85
2022/06/19 01:25:44;;;;;;;6.28;3.03;;;24.00;92.60;;;;;;4952518;28;20031;-86
2022/06/19 01:28:45;;;;;;;5.50;2.75;;;24.10;92.70;;;;;;4951605;29;20031;-85
2022/06/19 01:31:26;;;;;;;5.53;2.75;;;24.00;92.70;;;;;;4951662;28;20032;-85
2022/06/19 01:33:57;;;;;;;5.22;3.13;;;24.00;92.70;;;;;;4951697;29;20264;-86
2022/06/19 01:36:25;;;;;;;6.53;2.97;;;24.00;92.70;;;;;;4952535;28;20039;-85
2022/06/19 01:38:52;;;;;;;4.15;2.60;;;24.00;92.80;;;;;;4951226;29;20068;-85
2022/06/19 01:41:27;;;;;;;6.63;3.38;;;24.00;92.90;;;;;;4952820;29;20114;-85
2022/06/19 01:43:53;;;;;;;7.40;3.10;;;23.90;92.90;;;;;;4952644;29;20035;-85
2022/06/19 01:46:19;;;;;;;6.75;2.97;;;23.90;92.90;;;;;;4935357;29;20031;-85
2022/06/19 01:48:46;;;;;;;4.75;2.80;;;23.90;92.80;;;;;;4952385;28;20500;-86
2022/06/19 01:51:12;;;;;;;6.32;3.45;;;23.80;92.90;;;;;;4952618;29;20038;-85
2022/06/19 01:53:53;;;;;;;8.32;3.90;;;23.80;92.90;;;;;;4952451;29;20023;-85
2022/06/19 01:56:19;;;;;;;7.15;2.90;;;23.70;92.90;;;;;;4952365;28;20035;-86
2022/06/19 01:58:52;;;;;;;4.80;2.70;;;23.70;92.80;;;;;;4952428;29;20058;-86
2022/06/19 02:01:18;;;;;;;5.40;2.90;;;23.70;92.90;;;;;;4951138;29;20027;-86
2022/06/19 02:03:47;;;;;;;5.38;2.90;;;23.70;92.70;;;;;;4952449;29;20062;-85
2022/06/19 02:06:16;;;;;;;7.75;3.30;;;23.60;92.80;;;;;;4952281;28;20408;-85
2022/06/19 02:08:44;;;;;;;6.63;2.88;;;23.60;92.80;;;;;;4952317;29;20043;-85
2022/06/19 02:11:11;;;;;;;6.00;3.05;;;23.50;92.80;;;;;;4952461;28;20057;-85
2022/06/19 02:13:39;;;;;;;7.43;2.92;;;23.50;92.70;;;;;;4952502;29;20079;-85
2022/06/19 02:16:10;;;;;;;5.18;2.97;;;23.50;92.70;;;;;;4950911;28;20031;-85
2022/06/19 02:18:40;;;;;;;7.82;3.05;;;23.50;92.70;;;;;;4952091;29;20063;-86
2022/06/19 02:21:10;;;;;;;6.03;2.80;;;23.40;92.80;;;;;;4951020;29;20031;-85
2022/06/19 02:23:37;;;;;;;6.03;2.70;;;23.40;92.80;;;;;;4952227;29;20122;-85
2022/06/19 02:26:05;;;;;;;3.90;2.28;;;23.30;92.90;;;;;;4950865;28;20035;-86
2022/06/19 02:28:36;;;;;;;6.53;2.72;;;23.30;92.80;;;;;;4934965;29;20051;-85
2022/06/19 02:31:06;;;;;;;4.70;2.30;;;23.20;92.80;;;;;;4950883;29;20087;-86
2022/06/19 02:33:38;;;;;;;8.50;2.42;;;23.20;92.70;;;;;;4950867;29;20039;-85
2022/06/19 02:36:37;;;;;;;5.32;2.55;;;23.10;92.80;;;;;;4950737;28;20411;-85
2022/06/19 02:39:28;;;;;;;;;;;23.00;92.60;;;;;;4951248;29;20028;-85
2022/06/19 02:42:03;;;;;;;7.25;3.15;;;22.90;92.80;;;;;;4915641;28;20046;-85
2022/06/19 02:44:39;;;;;;;5.30;2.78;;;22.80;92.40;;;;;;4954254;29;20104;-85
2022/06/19 02:47:05;;;;;;;6.55;2.40;;;22.80;92.20;;;;;;4955592;28;20031;-85
2022/06/19 02:49:32;;;;;;;3.20;1.90;;;22.70;92.50;;;;;;4954039;29;20027;-85
2022/06/19 02:51:57;;;;;;;5.65;2.47;;;22.60;92.30;;;;;;4954561;29;20087;-85
2022/06/19 02:54:23;;;;;;;5.63;2.40;;;22.60;92.20;;;;;;4955488;29;20031;-85
2022/06/19 02:56:50;;;;;;;6.05;2.63;;;22.60;92.20;;;;;;4955086;28;20063;-85
2022/06/19 02:59:16;;;;;;;5.63;2.28;;;22.50;92.00;;;;;;4953830;29;20457;-85
2022/06/19 03:01:42;;;;;;;4.55;2.00;;;22.40;91.90;;;;;;4953902;29;20125;-85
2022/06/19 03:04:24;;;;;;;4.75;2.03;;;22.40;92.00;;;;;;4954005;29;20124;-86
2022/06/19 03:06:51;;;;;;;5.47;2.08;;;22.30;91.90;;;;;;4955363;28;20031;-85
2022/06/19 03:09:17;;;;;;;6.80;2.50;;;22.20;91.80;;;;;;4953651;29;20031;-85
2022/06/19 03:11:43;;;;;;;6.05;2.10;;;22.20;91.80;;;;;;4953998;29;20035;-85
2022/06/19 03:14:09;;;;;;;4.88;1.98;;;22.10;91.80;;;;;;4953733;29;20038;-85
2022/06/19 03:16:35;;;;;;;4.68;2.00;;;22.10;91.90;;;;;;4954801;28;20079;-85
2022/06/19 03:19:01;;;;;;;3.60;2.28;;;22.00;91.90;;;;;;4953474;29;20551;-85
2022/06/19 03:21:28;;;;;;;6.88;2.13;;;21.80;91.80;;;;;;4953827;29;20035;-85
2022/06/19 03:23:54;;;;;;;5.07;1.80;;;21.80;91.10;;;;;;4953885;29;20032;-86
2022/06/19 03:26:19;;;;;;;9.77;1.90;;;21.80;90.70;;;;;;4953251;28;20070;-85
2022/06/19 03:28:45;;;;;;;6.78;2.05;;;21.70;90.40;;;;;;4953448;29;20035;-85
2022/06/19 03:31:16;;;;;;;4.45;1.55;;;21.50;90.10;;;;;;4953488;29;20117;-85
2022/06/19 03:33:42;;;;;;;5.53;1.95;;;21.40;90.20;;;;;;4954618;29;20480;-85
2022/06/19 03:36:08;;;;;;;5.65;1.98;;;21.30;90.30;;;;;;4954555;28;20031;-85
2022/06/19 03:38:33;;;;;;;7.53;1.50;;;21.20;90.40;;;;;;4954593;29;20038;-85
2022/06/19 03:40:59;;;;;;;7.80;1.77;;;21.10;90.10;;;;;;4954504;29;20441;-85
2022/06/19 03:43:25;;;;;;;8.50;1.90;;;21.10;89.80;;;;;;4954487;29;20019;-85
2022/06/19 03:45:51;;;;;;;3.97;1.30;;;21.00;89.20;;;;;;4952877;28;20513;-85
2022/06/19 03:48:16;;;;;;;8.02;1.83;;;20.90;88.60;;;;;;4954314;29;20035;-85
2022/06/19 03:50:42;;;;;;;7.10;2.10;;;20.80;88.20;;;;;;4954244;29;20031;-85
2022/06/19 03:53:09;;;;;;;12.95;2.03;;;20.80;88.30;;;;;;4953409;28;20030;-85
2022/06/19 03:55:35;;;;;;;10.55;2.08;;;20.80;87.40;;;;;;4954104;28;20031;-85
2022/06/19 03:58:01;;;;;;;7.85;1.63;;;20.70;86.80;;;;;;4953143;29;20407;-85
2022/06/19 04:00:26;;;;;;;8.85;1.80;;;20.70;86.40;;;;;;4953956;29;20027;-85
2022/06/19 04:02:52;;;;;;;8.27;1.70;;;20.60;86.40;;;;;;4954066;29;20448;-85
2022/06/19 04:05:19;;;;;;;7.07;1.80;;;20.60;86.20;;;;;;4952873;28;20031;-85
2022/06/19 04:07:47;;;;;;;6.45;1.58;;;20.60;86.90;;;;;;4952626;29;20038;-85
2022/06/19 04:10:16;;;;;;;10.02;2.25;;;20.50;86.00;;;;;;4954061;29;20027;-85
2022/06/19 04:12:42;;;;;;;8.75;2.28;;;20.40;85.10;;;;;;4954078;29;20053;-85
2022/06/19 04:15:09;;;;;;;14.32;3.28;;;20.30;84.00;;;;;;4953880;28;20492;-85
2022/06/19 04:17:36;;;;;;;13.27;2.53;;;20.10;84.50;;;;;;4954020;29;20050;-85
2022/06/19 04:20:03;;;;;;;11.43;2.22;;;19.90;84.20;;;;;;4953723;29;20283;-85
2022/06/19 04:22:29;;;;;;;12.32;2.28;;;19.80;84.50;;;;;;4953833;29;20035;-85
2022/06/19 04:24:55;;;;;;;12.07;2.80;;;19.70;84.50;;;;;;4952263;28;20038;-85
2022/06/19 04:27:20;;;;;;;11.18;2.15;;;19.70;84.30;;;;;;4953510;29;20062;-85
2022/06/19 04:29:46;;;;;;;15.20;3.25;;;19.60;84.40;;;;;;4953434;29;20488;-85
2022/06/19 04:32:13;;;;;;;14.13;2.38;;;19.50;85.20;;;;;;4953595;29;20058;-85
2022/06/19 04:34:38;;;;;;;11.20;2.15;;;19.40;84.60;;;;;;4953599;29;20554;-85
2022/06/19 04:37:04;;;;;;;8.63;2.05;;;19.40;84.60;;;;;;4953259;28;20035;-85
2022/06/19 04:39:30;;;;;;;13.32;2.45;;;19.50;84.80;;;;;;4951887;29;20039;-85
2022/06/19 04:41:56;;;;;;;10.55;2.55;;;19.50;84.50;;;;;;4953386;29;20043;-86
2022/06/19 04:44:21;;;;;;;11.45;2.35;;;19.50;83.60;;;;;;4953345;29;20027;-86
2022/06/19 04:46:47;;;;;;;11.50;2.72;;;19.50;83.20;;;;;;4953327;28;20039;-86
2022/06/19 04:49:14;;;;;;;11.70;2.40;;;19.50;82.60;;;;;;4953166;29;20034;-86
2022/06/19 04:51:40;;;;;;;15.45;2.17;;;19.50;82.90;;;;;;4953355;29;20023;-86
2022/06/19 04:54:06;;;;;;;9.60;2.65;;;19.50;82.30;;;;;;4953264;29;20438;-86
2022/06/19 04:56:33;;;;;;;9.90;2.25;;;19.50;82.20;;;;;;4952859;28;20070;-86
2022/06/19 04:58:59;;;;;;;12.07;3.00;;;19.60;82.20;;;;;;4951887;29;20393;-86
2022/06/19 05:01:33;;;;;;;18.77;2.95;;;19.60;81.60;;;;;;4953031;29;20035;-86
2022/06/19 05:04:02;;;;;;;13.60;2.40;;;19.60;80.60;;;;;;4951905;28;20039;-86
2022/06/19 05:06:28;;;;;;;12.52;2.40;;;19.70;80.00;;;;;;4952643;28;20035;-86
2022/06/19 05:08:54;;;;;;;11.93;2.30;;;19.70;80.10;;;;;;4935631;29;20500;-86
2022/06/19 05:11:22;;;;;;;11.63;2.58;;;19.70;80.30;;;;;;4951793;29;20305;-86
2022/06/19 05:13:48;;;;;;;9.93;2.33;;;19.70;79.60;;;;;;4953079;28;20472;-86
2022/06/19 05:16:19;;;;;;;7.57;2.00;;;19.50;80.00;;;;;;4952611;28;20034;-86
2022/06/19 05:18:46;;;;;;;9.70;2.60;;;19.50;80.50;;;;;;4952730;29;20491;-86
2022/06/19 05:21:12;;;;;;;10.63;2.17;;;19.50;80.20;;;;;;4952836;28;20483;-86
2022/06/19 05:23:41;;;;;;;9.43;2.35;;;19.60;80.60;;;;;;4952696;29;20490;-86
2022/06/19 05:26:09;;;;;;;12.20;2.58;;;19.70;80.40;;;;;;4951247;28;20455;-86
2022/06/19 05:28:36;;;;;;;10.80;2.10;;;19.70;79.80;;;;;;4951413;29;20347;-86
2022/06/19 05:31:02;;;;;;;9.85;2.05;;;19.70;79.40;;;;;;4951460;29;20027;-86
2022/06/19 05:33:30;;;;;;;10.43;2.80;;;19.80;79.30;;;;;;4951640;29;20083;-86
2022/06/19 05:35:56;;;;;;;10.70;2.17;;;19.90;78.80;;;;;;4951304;28;20292;-86
2022/06/19 05:38:22;;;;;;;12.63;2.47;;;19.90;79.20;;;;;;4952611;29;20396;-86
2022/06/19 05:40:52;;;;;;;11.10;2.38;;;20.00;78.80;;;;;;4952372;29;20242;-86
2022/06/19 05:43:19;;;;;;;8.45;2.00;;;20.00;78.60;;;;;;4951495;29;20480;-86
2022/06/19 05:45:57;;;;;;;8.23;1.83;;;20.00;79.70;;;;;;4951064;28;20396;-86
2022/06/19 05:48:24;;;;;;;9.70;2.30;;;20.10;79.30;;;;;;4935524;29;20377;-86
2022/06/19 05:51:09;;;;;;;13.60;2.67;;;20.20;79.30;;;;;;4952811;29;20472;-86
2022/06/19 05:53:39;;;;;;;11.63;2.30;;;20.20;79.10;;;;;;4952851;29;20023;-86
2022/06/19 05:56:05;;;;;;;10.95;2.50;;;20.30;78.90;;;;;;4952281;28;20502;-86
2022/06/19 05:58:32;;;;;;;9.18;2.05;;;20.30;78.90;;;;;;4952331;29;20071;-86
2022/06/19 06:00:58;;;;;;;12.18;2.60;;;20.30;79.30;;;;;;4935235;29;20031;-86
2022/06/19 06:03:25;;;;;;;11.15;2.88;;;20.40;79.30;;;;;;4951244;29;20499;-86
2022/06/19 06:05:51;;;;;;;11.88;2.75;;;20.40;79.10;;;;;;4950863;28;20031;-86
2022/06/19 06:08:18;;;;;;;11.68;2.85;;;20.50;79.10;;;;;;4952576;28;20031;-86
2022/06/19 06:10:44;;;;;;;9.77;2.00;;;20.50;79.30;;;;;;4952215;29;20087;-86
2022/06/19 06:13:11;;;;;;;14.57;2.85;;;20.50;79.40;;;;;;4952465;29;20404;-86
2022/06/19 06:15:36;;;;;;;16.20;2.97;;;20.60;79.10;;;;;;4951014;28;20389;-85
2022/06/19 06:18:03;;;;;;;11.88;2.63;;;20.70;78.90;;;;;;4955098;29;20118;-86
2022/06/19 06:20:30;;;;;;;11.30;2.75;;;20.70;79.00;;;;;;4955689;29;20480;-85
2022/06/19 06:22:56;;;;;;;16.50;2.85;;;20.70;78.40;;;;;;4956004;29;20483;-86
2022/06/19 06:25:23;;;;;;;13.32;2.60;;;20.70;78.70;;;;;;4955900;28;20113;-86
2022/06/19 06:27:50;;;;;;;13.48;2.70;;;20.70;79.00;;;;;;4956068;29;20471;-85
2022/06/19 06:30:15;;;;;;;9.10;2.20;;;20.80;79.10;;;;;;4955637;29;20055;-85
2022/06/19 06:32:42;;;;;;;6.07;1.80;;;20.90;79.00;;;;;;4955709;28;20057;-85
2022/06/19 06:35:08;;;;;;;10.40;2.75;;;20.90;78.70;;;;;;4955706;28;20027;-85
2022/06/19 06:37:34;;;;;;;12.77;2.63;;;21.00;78.00;;;;;;4954334;29;20027;-86
2022/06/19 06:40:00;;;;;;;11.20;2.10;;;21.00;78.30;;;;;;4955482;29;20024;-85
2022/06/19 06:42:26;;;;;;;11.07;2.60;;;21.00;78.40;;;;;;4955532;29;20508;-86
2022/06/19 06:44:52;;;;;;;9.95;2.20;;;21.00;78.50;;;;;;4955578;28;20135;-85
2022/06/19 06:47:18;;;;;;;8.93;2.03;;;21.00;78.10;;;;;;4955862;29;20110;-85
2022/06/19 06:49:44;;;;;;;12.25;2.40;;;21.00;78.30;;;;;;4955339;29;20030;-85
2022/06/19 06:52:10;;;;;;;8.65;2.05;;;21.00;78.40;;;;;;4955506;29;20514;-85
2022/06/19 06:54:37;;;;;;;11.40;2.30;;;21.10;78.60;;;;;;4955442;29;20035;-84
2022/06/19 06:57:04;;;;;;;9.20;2.35;;;21.10;78.60;;;;;;4953901;28;20105;-85
2022/06/19 06:59:30;;;;;;;10.43;2.50;;;21.10;78.60;;;;;;4953948;29;20404;-85
2022/06/19 07:01:56;;;;;;;14.75;3.35;;;21.10;78.20;;;;;;4955166;29;20035;-85
2022/06/19 07:04:22;;;;;;;9.43;2.17;;;21.10;78.50;;;;;;4955162;29;20038;-85
2022/06/19 07:06:47;;;;;;;10.73;2.22;;;21.20;78.50;;;;;;4955258;28;20201;-85
2022/06/19 07:09:13;;;;;;;13.75;2.55;;;21.20;78.50;;;;;;4954148;29;20039;-85
2022/06/19 07:11:43;;;;;;;9.95;2.53;;;21.20;77.40;;;;;;4955300;29;20027;-85
2022/06/19 07:14:10;;;;;;;7.88;2.25;;;21.20;77.80;;;;;;4954039;29;20035;-85
2022/06/19 07:16:36;;;;;;;9.77;2.78;;;21.10;77.60;;;;;;4954750;28;20095;-85
2022/06/19 07:19:02;;;;;;;8.52;2.40;;;21.10;77.80;;;;;;4953542;29;20034;-85
2022/06/19 07:21:28;;;;;;;11.95;2.47;;;21.10;78.20;;;;;;4954914;29;20476;-85
2022/06/19 07:23:54;;;;;;;11.80;2.90;;;21.10;79.00;;;;;;4954879;29;20041;-86
2022/06/19 07:26:22;;;;;;;14.10;2.80;;;21.20;78.70;;;;;;4953517;28;20026;-85
2022/06/19 07:28:48;;;;;;;12.40;3.00;;;21.30;77.70;;;;;;4954540;28;20027;-86
2022/06/19 07:31:14;;;;;;;19.27;3.78;;;21.30;77.90;;;;;;4954601;29;20039;-85
2022/06/19 07:33:40;;;;;;;13.90;3.83;;;21.20;78.20;;;;;;4954667;29;20023;-86
2022/06/19 07:36:11;;;;;;;14.27;3.58;;;21.20;78.70;;;;;;4953247;28;20511;-85
2022/06/19 07:38:37;;;;;;;16.08;3.72;;;21.10;78.80;;;;;;4953183;29;20027;-86
2022/06/19 07:41:03;;;;;;;14.27;3.65;;;21.10;78.80;;;;;;4953264;29;20040;-85
2022/06/19 07:43:29;;;;;;;12.10;2.90;;;21.10;78.50;;;;;;4953242;29;20031;-85
2022/06/19 07:45:54;;;;;;;12.88;2.92;;;21.10;78.80;;;;;;4953074;28;20039;-85
2022/06/19 07:51:04;;;;;;;11.73;4.28;;;21.00;79.00;;;;;;4954766;28;20102;-85
2022/06/19 07:53:30;;;;;;;16.70;3.17;;;21.00;79.50;;;;;;4954366;29;20600;-86
2022/06/19 07:55:56;;;;;;;9.10;2.67;;;21.00;79.30;;;;;;4954136;28;20039;-85
2022/06/19 07:58:22;;;;;;;13.93;3.20;;;20.90;79.60;;;;;;4953451;29;20042;-85
2022/06/19 08:00:48;;;;;;;14.55;3.58;;;21.00;79.60;;;;;;4953889;29;20035;-85
2022/06/19 08:03:14;;;;;;;14.00;2.72;;;20.90;79.40;;;;;;4952964;29;20039;-85
2022/06/19 08:05:41;;;;;;;12.95;3.10;;;20.90;79.50;;;;;;4953738;28;20041;-86
2022/06/19 08:08:24;;;;;;;11.05;2.15;;;20.90;79.50;;;;;;4952808;29;20027;-86
2022/06/19 08:10:53;;;;;;;10.32;2.70;;;21.00;79.70;;;;;;4954191;29;20599;-85
2022/06/19 08:13:24;;;;;;;11.82;2.88;;;21.00;79.30;;;;;;4954067;29;20035;-85
2022/06/19 08:15:53;;;;;;;12.68;2.47;;;21.10;78.90;;;;;;4953957;28;20035;-85
2022/06/19 08:18:19;;;;;;;15.35;2.97;;;21.20;78.30;;;;;;4954261;29;20027;-85
2022/06/19 08:20:46;;;;;;;8.90;2.72;;;21.10;77.90;;;;;;4952995;29;20039;-85
2022/06/19 08:23:13;;;;;;;15.13;3.17;;;21.10;77.80;;;;;;4953667;29;20046;-85
2022/06/19 08:25:39;;;;;;;15.63;3.10;;;21.20;78.00;;;;;;4952395;28;20038;-85
2022/06/19 08:28:05;;;;;;;11.63;2.55;;;21.10;77.70;;;;;;4953851;29;20023;-85
2022/06/19 08:30:37;;;;;;;12.27;2.47;;;21.20;78.20;;;;;;4953723;29;20102;-85
2022/06/19 08:33:04;;;;;;;11.40;2.95;;;21.20;78.00;;;;;;4952270;29;20035;-85
2022/06/19 08:35:33;;;;;;;11.18;2.20;;;21.10;77.60;;;;;;4952337;28;20031;-85
2022/06/19 08:38:04;;;;;;;12.65;2.78;;;21.20;78.10;;;;;;4953397;29;20055;-86
2022/06/19 08:41:10;;;;;;;10.50;2.25;;;21.20;78.10;;;;;;4951519;28;20041;-85
2022/06/19 08:43:50;;;;;;;10.07;2.50;;;21.20;77.90;;;;;;4953529;29;20035;-86
2022/06/19 08:46:38;;;;;;;13.75;3.30;;;21.20;77.90;;;;;;4951823;28;20496;-85
2022/06/19 08:49:22;;;;;;;13.38;2.85;;;21.20;77.70;;;;;;4953342;29;20058;-86
2022/06/19 08:51:51;;;;;;;9.18;2.50;;;21.20;77.80;;;;;;4952109;29;20110;-85
2022/06/19 08:54:20;;;;;;;;;;;21.20;78.00;;;;;;4953656;29;20115;-85
2022/06/19 08:57:15;;;;;;;9.38;2.50;;;21.20;78.00;;;;;;4952911;28;19914;-85
2022/06/19 08:59:56;;;;;;;12.00;3.65;;;21.30;78.00;;;;;;4953227;29;20035;-86
2022/06/19 09:02:52;;;;;;;13.13;2.53;;;21.40;78.20;;;;;;4953184;29;20034;-86
2022/06/19 09:05:47;;;;;;;11.90;2.25;;;21.50;78.40;;;;;;4953015;28;20102;-85
2022/06/19 09:08:25;;;;;;;12.57;3.15;;;21.50;78.20;;;;;;4953227;29;20054;-85
2022/06/19 09:11:33;;;;;;;13.93;3.30;;;21.60;77.80;;;;;;4952780;29;20034;-86
2022/06/19 09:14:05;;;;;;;19.60;2.58;;;21.60;77.50;;;;;;4946379;29;20046;-86
2022/06/19 09:16:50;;;;;;;9.60;2.30;;;21.50;77.70;;;;;;4953442;28;20043;-86
2022/06/19 09:19:37;;;;;;;12.35;3.03;;;21.50;78.20;;;;;;4953587;29;20031;-86
2022/06/19 09:22:08;;;;;;;11.23;2.50;;;21.50;78.80;;;;;;4953328;29;20031;-85
2022/06/19 09:24:49;;;;;;;12.43;2.72;;;21.50;77.70;;;;;;4953196;29;20055;-86
2022/06/19 09:27:18;;;;;;;10.90;2.35;;;21.50;77.90;;;;;;4935666;29;20495;-85
2022/06/19 09:29:51;;;;;;;;;;;21.50;77.60;;;;;;4953167;29;20031;-85
2022/06/19 09:32:26;;;;;;;12.35;3.35;;;21.50;77.70;;;;;;4953301;28;19914;-86
2022/06/19 09:35:09;;;;;;;8.25;2.10;;;21.40;77.60;;;;;;4952810;28;20036;-86
2022/06/19 09:37:57;;;;;;;9.00;2.08;;;21.40;77.90;;;;;;4951574;29;20035;-86
2022/06/19 09:40:33;;;;;;;8.15;2.20;;;21.40;78.20;;;;;;4952398;29;20043;-86
2022/06/19 09:42:58;;;;;;;11.38;3.03;;;21.40;77.80;;;;;;4951714;29;20032;-86
2022/06/19 09:45:33;;;;;;;15.13;2.55;;;21.40;77.80;;;;;;4952708;28;20483;-86
2022/06/19 09:48:23;;;;;;;9.57;2.10;;;21.40;77.50;;;;;;4951445;29;20562;-85
2022/06/19 09:50:58;;;;;;;8.73;1.85;;;21.40;78.10;;;;;;4951112;28;20084;-86
2022/06/19 09:53:44;;;;;;;8.30;2.75;;;21.50;78.60;;;;;;4956427;28;20031;-86
2022/06/19 09:56:31;;;;;;;8.77;2.20;;;21.40;78.80;;;;;;4956213;28;20035;-86
2022/06/19 09:59:09;;;;;;;11.23;2.38;;;21.50;79.00;;;;;;4956241;29;20448;-86
2022/06/19 10:01:36;;;;;;;9.70;2.28;;;21.50;79.60;;;;;;4956462;29;20505;-85
2022/06/19 10:04:09;;;;;;;8.93;2.03;;;21.50;79.30;;;;;;4956295;28;20023;-86
2022/06/19 10:06:42;;;;;;;11.20;2.30;;;21.50;79.50;;;;;;4956181;28;20448;-85
2022/06/19 10:09:39;;;;;;;9.00;2.10;;;21.50;79.60;;;;;;4956030;29;20114;-85
2022/06/19 10:12:11;;;;;;;10.73;2.58;;;21.50;79.50;;;;;;4956235;28;20096;-85
2022/06/19 10:14:45;;;;;;;11.48;2.97;;;21.50;79.20;;;;;;4956141;29;20440;-85
2022/06/19 10:17:23;;;;;;;8.88;2.28;;;21.50;78.80;;;;;;4955908;29;20032;-85
2022/06/19 10:19:51;;;;;;;12.43;3.00;;;21.50;79.50;;;;;;4955849;29;20042;-85
2022/06/19 10:22:26;;;;;;;12.63;3.00;;;21.60;80.30;;;;;;4954789;29;20507;-85
2022/06/19 10:25:16;;;;;;;10.65;2.90;;;21.70;79.50;;;;;;4955919;28;20035;-85
2022/06/19 10:28:15;;;;;;;10.35;2.63;;;21.70;79.30;;;;;;4955699;29;20543;-85
2022/06/19 10:31:11;;;;;;;10.80;2.85;;;21.80;80.40;;;;;;4955857;28;20027;-86
2022/06/19 10:33:43;;;;;;;11.88;3.05;;;21.80;80.20;;;;;;4938569;29;20522;-85
2022/06/19 10:36:42;;;;;;;9.55;2.25;;;21.80;80.20;;;;;;4954216;28;20447;-84
2022/06/19 10:39:16;;;;;;;11.13;2.50;;;21.80;79.80;;;;;;4954437;29;20114;-85
2022/06/19 10:45:00;;;;;;;10.40;2.05;;;21.60;79.70;;;;;;4955621;28;20407;-85
2022/06/19 10:47:31;;;;;;;11.13;2.38;;;21.60;79.50;;;;;;4955557;28;20097;-85
2022/06/19 10:50:16;;;;;;;11.02;3.00;;;21.70;80.10;;;;;;4955267;29;20024;-85
2022/06/19 10:53:15;;;;;;;10.45;2.45;;;21.70;79.10;;;;;;4955372;29;20040;-85
2022/06/19 10:55:53;;;;;;;13.00;2.53;;;21.70;79.30;;;;;;4955156;28;20034;-85
2022/06/19 10:58:22;;;;;;;10.50;2.88;;;21.80;79.70;;;;;;4955550;28;20031;-85
2022/06/19 11:01:02;;;;;;;;;;;21.70;79.70;;;;;;4955718;29;20031;-85
2022/06/19 11:06:45;;;;;;;9.85;2.38;;;21.90;78.60;;;;;;4954950;28;20094;-85
2022/06/19 11:09:26;;;;;;;11.05;2.97;;;21.90;79.30;;;;;;4955117;29;20113;-85
2022/06/19 11:11:55;;;;;;;14.63;2.83;;;21.80;78.70;;;;;;4953838;29;20043;-85
2022/06/19 11:14:34;;;;;;;11.20;2.50;;;21.80;79.00;;;;;;4955384;29;20058;-85
2022/06/19 11:17:07;;;;;;;9.43;2.15;;;21.80;78.90;;;;;;4953728;28;20039;-84
2022/06/19 11:19:47;;;;;;;9.90;2.70;;;21.80;79.70;;;;;;4953818;29;20106;-85
2022/06/19 11:22:30;;;;;;;9.68;2.50;;;21.80;79.20;;;;;;4955143;29;20057;-85
2022/06/19 11:24:56;;;;;;;11.02;2.58;;;21.90;79.50;;;;;;4953865;28;20232;-85
2022/06/19 11:27:25;;;;;;;9.82;2.55;;;21.90;79.10;;;;;;4954882;29;20035;-85
2022/06/19 11:29:54;;;;;;;11.48;2.35;;;22.00;79.30;;;;;;4954656;29;20070;-85
2022/06/19 11:32:26;;;;;;;;;;;22.00;79.40;;;;;;4954158;29;20031;-86
2022/06/19 11:35:01;;;;;;;10.02;2.15;;;22.00;79.60;;;;;;4954646;28;19910;-85
2022/06/19 11:37:51;;;;;;;13.50;2.60;;;22.00;79.50;;;;;;4954419;29;20493;-85
2022/06/19 11:40:26;;;;;;;12.98;3.15;;;22.00;79.10;;;;;;4953302;29;20131;-85
2022/06/19 11:42:55;;;;;;;10.10;2.90;;;22.00;79.20;;;;;;4954599;29;20050;-86
2022/06/19 11:45:24;;;;;;;13.02;3.17;;;21.90;79.50;;;;;;4937130;29;20038;-86
2022/06/19 11:47:56;;;;;;;12.05;2.58;;;22.00;79.50;;;;;;4937054;29;20047;-86
2022/06/19 11:50:33;;;;;;;9.98;3.03;;;21.90;79.10;;;;;;4953070;29;20027;-86
2022/06/19 11:53:08;;;;;;;18.48;3.33;;;21.90;79.20;;;;;;4954679;29;20034;-85
2022/06/19 11:55:47;;;;;;;13.80;3.30;;;21.90;79.00;;;;;;4954322;28;20070;-86
2022/06/19 11:58:20;;;;;;;10.80;2.95;;;22.00;78.90;;;;;;4954347;29;20476;-85
2022/06/19 12:00:58;;;;;;;13.27;3.38;;;22.00;79.10;;;;;;4953053;29;20392;-85
2022/06/19 12:03:52;;;;;;;17.30;3.42;;;22.10;79.00;;;;;;4953241;29;20109;-86
2022/06/19 12:06:35;;;;;;;10.93;3.03;;;22.20;78.80;;;;;;4953907;28;20125;-85
2022/06/19 12:09:04;;;;;;;8.52;2.40;;;22.10;78.90;;;;;;4952977;29;20031;-86
2022/06/19 12:11:40;;;;;;;13.15;2.75;;;22.10;78.70;;;;;;4952999;29;20039;-86
2022/06/19 12:14:08;;;;;;;9.85;2.60;;;22.10;78.60;;;;;;4936245;29;20031;-86
2022/06/19 12:16:35;;;;;;;9.18;2.58;;;22.10;79.10;;;;;;4952540;28;20399;-86
2022/06/19 12:19:24;;;;;;;12.15;2.85;;;22.20;79.50;;;;;;4952659;29;20530;-85
2022/06/19 12:21:56;;;;;;;10.05;2.47;;;22.20;79.30;;;;;;4952526;29;20035;-85
2022/06/19 12:24:33;;;;;;;10.57;2.63;;;22.20;79.60;;;;;;4954012;29;20038;-85
2022/06/19 12:27:01;;;;;;;11.70;3.00;;;22.20;79.40;;;;;;4953937;28;20033;-85
2022/06/19 12:29:45;;;;;;;13.23;2.83;;;22.30;79.70;;;;;;4952792;29;20094;-85
2022/06/19 12:32:22;;;;;;;12.90;2.85;;;22.40;80.10;;;;;;4953997;29;20027;-85
2022/06/19 12:34:53;;;;;;;8.60;2.60;;;22.50;79.10;;;;;;4953651;28;20058;-85
2022/06/19 12:37:26;;;;;;;14.50;2.78;;;22.60;79.00;;;;;;4953323;29;20042;-85
2022/06/19 12:39:54;;;;;;;9.88;2.22;;;22.70;79.50;;;;;;4953569;29;20031;-84
2022/06/19 12:42:34;;;;;;;12.85;3.00;;;22.80;78.40;;;;;;4953663;29;20031;-85
2022/06/19 12:45:09;;;;;;;13.82;2.92;;;22.90;77.40;;;;;;4953422;28;20059;-84
2022/06/19 12:47:43;;;;;;;15.10;3.10;;;23.00;77.70;;;;;;4953243;29;20055;-85
2022/06/19 12:50:17;;;;;;;11.63;3.60;;;23.10;77.40;;;;;;4953207;29;20090;-84
2022/06/19 12:53:19;;;;;;;13.73;3.00;;;23.10;77.90;;;;;;4953562;29;20031;-84
2022/06/19 12:56:11;;;;;;;12.57;3.20;;;23.10;77.90;;;;;;4944755;28;20385;-85
2022/06/19 12:58:40;;;;;;;9.65;3.25;;;23.20;78.30;;;;;;4953321;29;20031;-84
2022/06/19 13:01:13;;;;;;;;;;;23.10;78.30;;;;;;4953599;29;20480;-85
2022/06/19 13:03:47;;;;;;;9.77;2.70;;;23.10;78.20;;;;;;4953677;28;19910;-85
2022/06/19 13:06:44;;;;;;;15.23;3.70;;;23.10;78.30;;;;;;4952866;28;20031;-85
2022/06/19 13:09:32;;;;;;;12.75;3.30;;;23.00;77.80;;;;;;4953011;29;20023;-84
2022/06/19 13:12:18;;;;;;;10.00;3.08;;;23.00;78.00;;;;;;4953053;28;20479;-84
2022/06/19 13:15:12;;;;;;;9.65;2.95;;;23.00;78.40;;;;;;4952988;29;20038;-85